Time;durP1;ratioP1;P1;durP2;ratioP2;P2;SDS_P1;SDS_P2;PMS_P1;PMS_P2;Temp;Humidity;BMP_temperature;BMP_pressure;BME280_temperature;BME280_humidity;BME280_pressure;Samples;Min_cycle;Max_cycle;Signal;HPM_P1;HPM_P2
2021/04/28 00:02:22;;;;;;;1.42;1.13;;;20.40;33.80;;;;;;5055060;28;20029;-59
2021/04/28 00:04:47;;;;;;;1.80;0.90;;;20.40;34.40;;;;;;5054815;28;20079;-59
2021/04/28 00:07:13;;;;;;;1.35;1.00;;;20.30;34.30;;;;;;5054745;28;20083;-56
2021/04/28 00:09:38;;;;;;;2.13;1.20;;;20.30;33.60;;;;;;5054711;28;20021;-57
2021/04/28 00:12:05;;;;;;;1.15;0.93;;;20.30;33.70;;;;;;5055029;28;20395;-58
2021/04/28 00:14:31;;;;;;;1.23;0.90;;;20.30;33.70;;;;;;5054551;28;20064;-58
2021/04/28 00:16:57;;;;;;;1.60;1.13;;;20.30;33.60;;;;;;5054741;28;20060;-57
2021/04/28 00:19:23;;;;;;;1.45;1.08;;;20.30;33.70;;;;;;5054590;28;20086;-61
2021/04/28 00:21:49;;;;;;;1.10;1.00;;;20.30;33.70;;;;;;5054804;28;20351;-58
2021/04/28 00:24:14;;;;;;;1.00;0.90;;;20.30;33.60;;;;;;5054648;28;20367;-61
2021/04/28 00:26:40;;;;;;;1.05;0.95;;;20.30;33.60;;;;;;5054348;28;20052;-59
2021/04/28 00:29:05;;;;;;;1.15;1.02;;;20.30;33.60;;;;;;5054594;28;20466;-56
2021/04/28 00:31:32;;;;;;;1.85;1.17;;;20.30;33.70;;;;;;5054723;28;20049;-57
2021/04/28 00:33:58;;;;;;;0.82;0.77;;;20.30;33.70;;;;;;5054641;28;20336;-60
2021/04/28 00:36:23;;;;;;;1.98;1.10;;;20.20;33.60;;;;;;5036932;28;20139;-59
2021/04/28 00:38:50;;;;;;;2.20;1.30;;;20.20;33.60;;;;;;5054743;28;20104;-59
2021/04/28 00:41:16;;;;;;;1.85;0.98;;;20.20;33.60;;;;;;5054466;28;20033;-59
2021/04/28 00:43:41;;;;;;;1.83;1.23;;;20.20;33.60;;;;;;5054449;28;20112;-59
2021/04/28 00:46:07;;;;;;;4.53;0.90;;;20.20;33.60;;;;;;5054844;28;20025;-55
2021/04/28 00:48:34;;;;;;;3.30;1.27;;;20.20;33.60;;;;;;5053950;28;20025;-57
2021/04/28 00:51:00;;;;;;;1.67;1.30;;;20.20;33.50;;;;;;5054520;28;20051;-58
2021/04/28 00:53:27;;;;;;;2.55;0.93;;;20.20;33.50;;;;;;5054159;28;20025;-56
2021/04/28 00:55:55;;;;;;;2.45;1.00;;;20.20;33.50;;;;;;5054268;28;20025;-56
2021/04/28 00:58:22;;;;;;;0.98;0.90;;;20.20;33.60;;;;;;5054483;28;20025;-58
2021/04/28 01:00:48;;;;;;;2.08;1.15;;;20.10;33.50;;;;;;5053953;28;20052;-56
2021/04/28 01:03:13;;;;;;;2.42;1.10;;;20.10;33.50;;;;;;5054499;28;20087;-56
2021/04/28 01:05:39;;;;;;;2.05;1.20;;;20.10;33.50;;;;;;5054251;28;20025;-57
2021/04/28 01:08:06;;;;;;;0.80;0.80;;;20.10;33.80;;;;;;5054845;28;20103;-58
2021/04/28 01:10:34;;;;;;;1.15;1.05;;;20.10;33.40;;;;;;5058006;28;20098;-56
2021/04/28 01:13:01;;;;;;;1.55;1.35;;;20.10;33.40;;;;;;5057653;28;20029;-57
2021/04/28 01:15:29;;;;;;;1.08;0.90;;;20.10;33.40;;;;;;5057696;28;20029;-57
2021/04/28 01:17:56;;;;;;;2.75;1.08;;;20.10;33.40;;;;;;5040443;28;20037;-58
2021/04/28 01:20:23;;;;;;;2.65;1.27;;;20.10;33.30;;;;;;5057699;28;20021;-56
2021/04/28 01:22:49;;;;;;;1.23;1.13;;;20.10;33.40;;;;;;5057643;28;20025;-56
2021/04/28 01:25:23;;;;;;;1.02;0.90;;;20.10;33.40;;;;;;5057534;28;20029;-57
2021/04/28 01:28:06;;;;;;;2.63;1.30;;;20.10;33.40;;;;;;5057479;28;20048;-57
2021/04/28 01:30:50;;;;;;;1.23;1.00;;;20.10;33.40;;;;;;5057238;28;20094;-56
2021/04/28 01:33:26;;;;;;;1.67;1.15;;;20.10;33.30;;;;;;5057866;28;20382;-58
2021/04/28 01:35:55;;;;;;;1.65;1.20;;;20.00;33.20;;;;;;5057285;28;20106;-58
2021/04/28 01:38:23;;;;;;;1.73;1.08;;;20.00;33.20;;;;;;5057339;28;20033;-56
2021/04/28 01:40:50;;;;;;;1.38;1.20;;;20.00;33.30;;;;;;5057546;28;20053;-57
2021/04/28 01:43:18;;;;;;;2.08;1.30;;;20.00;33.20;;;;;;5057462;28;20021;-57
2021/04/28 01:45:47;;;;;;;1.27;1.17;;;20.00;33.30;;;;;;5057105;28;20028;-55
2021/04/28 01:48:14;;;;;;;2.33;1.10;;;20.00;33.20;;;;;;5057208;28;20020;-55
2021/04/28 01:50:40;;;;;;;1.45;1.23;;;20.00;33.30;;;;;;5057058;28;20017;-57
2021/04/28 01:53:06;;;;;;;2.13;1.15;;;20.00;33.30;;;;;;5057027;28;20061;-58
2021/04/28 01:55:33;;;;;;;1.25;1.08;;;20.00;33.30;;;;;;5057467;28;20127;-55
2021/04/28 01:58:02;;;;;;;1.17;1.02;;;19.90;33.20;;;;;;5057117;28;20047;-57
2021/04/28 02:00:28;;;;;;;1.58;1.10;;;20.00;33.30;;;;;;5056932;28;20048;-56
2021/04/28 02:02:54;;;;;;;0.80;0.70;;;19.90;33.30;;;;;;5057420;28;20021;-57
2021/04/28 02:05:21;;;;;;;1.30;1.08;;;19.90;33.20;;;;;;5057185;28;20402;-58
2021/04/28 02:07:47;;;;;;;3.05;1.20;;;19.90;33.20;;;;;;5057207;28;20078;-57
2021/04/28 02:10:14;;;;;;;1.70;1.17;;;19.90;33.20;;;;;;5056700;28;20028;-59
2021/04/28 02:12:40;;;;;;;1.23;1.00;;;19.90;33.30;;;;;;5056818;28;20032;-58
2021/04/28 02:15:08;;;;;;;1.35;1.25;;;20.00;33.30;;;;;;5056453;28;20466;-58
2021/04/28 02:17:34;;;;;;;1.33;1.15;;;19.90;33.20;;;;;;5056749;28;20035;-56
2021/04/28 02:20:00;;;;;;;1.63;1.20;;;19.90;33.30;;;;;;5055688;28;20063;-58
2021/04/28 02:22:28;;;;;;;1.13;0.98;;;19.90;33.30;;;;;;5056688;28;20051;-55
2021/04/28 02:24:54;;;;;;;1.27;1.13;;;19.90;33.20;;;;;;5056503;28;20028;-58
2021/04/28 02:27:20;;;;;;;1.23;1.10;;;19.90;33.30;;;;;;5056134;28;20032;-57
2021/04/28 02:29:46;;;;;;;1.67;1.30;;;19.90;33.30;;;;;;5056414;28;20024;-57
2021/04/28 02:32:11;;;;;;;1.58;1.25;;;19.90;33.20;;;;;;5056412;28;20021;-55
2021/04/28 02:34:37;;;;;;;1.20;1.10;;;19.80;33.20;;;;;;5055915;28;20028;-56
2021/04/28 02:37:04;;;;;;;1.17;1.08;;;19.80;33.20;;;;;;5056344;28;20041;-56
2021/04/28 02:39:35;;;;;;;1.63;1.30;;;19.80;33.20;;;;;;5056206;28;20104;-59
2021/04/28 02:42:03;;;;;;;1.17;1.10;;;19.80;33.20;;;;;;5056307;28;20028;-54
2021/04/28 02:44:33;;;;;;;1.38;1.27;;;19.80;33.20;;;;;;5056036;28;20017;-57
2021/04/28 02:46:59;;;;;;;1.65;1.30;;;19.80;33.90;;;;;;5056002;28;20087;-57
2021/04/28 02:49:26;;;;;;;1.13;1.02;;;19.80;33.80;;;;;;5055857;28;20021;-58
2021/04/28 02:51:53;;;;;;;2.03;1.30;;;19.80;33.20;;;;;;5056249;28;20029;-54
2021/04/28 02:54:20;;;;;;;1.35;1.10;;;19.80;33.10;;;;;;5055868;28;20051;-59
2021/04/28 02:56:51;;;;;;;1.10;1.00;;;19.80;33.10;;;;;;5055153;28;20412;-56
2021/04/28 02:59:18;;;;;;;1.40;1.30;;;19.80;33.10;;;;;;5055989;28;20021;-56
2021/04/28 03:01:45;;;;;;;1.88;0.93;;;19.80;33.00;;;;;;5038306;28;20025;-54
2021/04/28 03:04:11;;;;;;;1.20;1.10;;;19.70;33.00;;;;;;5055432;28;20021;-56
2021/04/28 03:06:36;;;;;;;1.02;0.90;;;19.70;33.00;;;;;;5037849;28;20035;-58
2021/04/28 03:09:04;;;;;;;2.15;1.23;;;19.70;33.00;;;;;;5055623;28;20025;-59
2021/04/28 03:11:30;;;;;;;1.60;1.25;;;19.70;33.00;;;;;;5055431;28;20017;-58
2021/04/28 03:13:56;;;;;;;1.08;1.05;;;19.70;33.00;;;;;;5055351;28;20464;-58
2021/04/28 03:16:22;;;;;;;1.45;0.98;;;19.70;32.90;;;;;;5055636;28;20033;-56
2021/04/28 03:18:49;;;;;;;1.50;1.40;;;19.70;33.00;;;;;;5055715;28;20057;-56
2021/04/28 03:21:17;;;;;;;3.65;1.50;;;19.70;32.90;;;;;;5055840;28;20338;-58
2021/04/28 03:23:42;;;;;;;5.18;1.58;;;19.70;33.00;;;;;;5055273;28;20114;-57
2021/04/28 03:26:12;;;;;;;1.30;1.17;;;19.70;32.90;;;;;;5055486;28;20079;-58
2021/04/28 03:28:38;;;;;;;1.40;1.30;;;19.60;32.90;;;;;;5055287;28;20024;-57
2021/04/28 03:31:03;;;;;;;2.33;1.40;;;19.70;32.90;;;;;;5054826;28;20056;-57
2021/04/28 03:33:29;;;;;;;1.92;1.30;;;19.60;33.50;;;;;;5055494;28;20473;-58
2021/04/28 03:35:55;;;;;;;2.08;0.93;;;19.60;32.80;;;;;;5055207;28;20363;-59
2021/04/28 03:38:20;;;;;;;2.17;1.10;;;19.60;32.90;;;;;;5054932;28;20029;-55
2021/04/28 03:40:46;;;;;;;3.00;1.10;;;19.60;32.90;;;;;;5055318;28;20117;-59
2021/04/28 03:43:12;;;;;;;1.73;1.20;;;19.60;32.90;;;;;;5055113;28;20029;-57
2021/04/28 03:45:37;;;;;;;2.38;1.40;;;19.60;32.90;;;;;;5054690;28;20375;-55
2021/04/28 03:48:03;;;;;;;1.35;1.20;;;19.60;32.90;;;;;;5055115;28;20040;-58
2021/04/28 03:50:29;;;;;;;1.38;1.27;;;19.60;32.90;;;;;;5054893;28;20029;-55
2021/04/28 03:52:55;;;;;;;3.15;1.67;;;19.60;32.90;;;;;;5054658;28;20029;-55
2021/04/28 03:55:20;;;;;;;2.63;1.30;;;19.60;32.90;;;;;;5054960;28;20087;-57
2021/04/28 03:57:46;;;;;;;1.90;1.40;;;19.60;32.90;;;;;;5055197;28;20182;-57
2021/04/28 04:00:12;;;;;;;2.58;1.52;;;19.50;32.80;;;;;;5054807;28;20025;-57
2021/04/28 04:02:38;;;;;;;1.48;1.33;;;19.50;32.80;;;;;;5054837;28;20029;-58
2021/04/28 04:05:04;;;;;;;1.88;1.17;;;19.50;32.80;;;;;;5054793;28;20032;-56
2021/04/28 04:07:30;;;;;;;2.30;1.30;;;19.50;32.90;;;;;;5054717;28;20025;-57
2021/04/28 04:09:55;;;;;;;1.75;1.38;;;19.50;32.90;;;;;;5054548;28;20413;-58
2021/04/28 04:12:21;;;;;;;1.98;1.35;;;19.50;32.90;;;;;;5054723;28;20146;-55
2021/04/28 04:14:46;;;;;;;1.75;1.33;;;19.50;32.90;;;;;;5054619;28;20110;-57
2021/04/28 04:17:12;;;;;;;1.88;1.30;;;19.50;32.90;;;;;;5054864;28;20041;-56
2021/04/28 04:19:38;;;;;;;1.50;1.17;;;19.50;32.90;;;;;;5054679;28;20025;-59
2021/04/28 04:22:03;;;;;;;2.05;1.42;;;19.50;32.90;;;;;;5054729;28;20446;-58
2021/04/28 04:24:29;;;;;;;2.17;1.30;;;19.50;32.90;;;;;;5036645;28;20074;-57
2021/04/28 04:26:54;;;;;;;2.28;1.40;;;19.50;32.90;;;;;;5054705;28;20033;-54
2021/04/28 04:29:20;;;;;;;1.88;1.50;;;19.50;33.30;;;;;;5054922;28;20029;-51
2021/04/28 04:31:46;;;;;;;2.78;1.58;;;19.50;33.80;;;;;;5055060;28;20049;-57
2021/04/28 04:34:11;;;;;;;5.45;1.80;;;19.40;34.00;;;;;;5054443;28;20017;-53
2021/04/28 04:36:37;;;;;;;3.38;1.40;;;19.50;34.10;;;;;;5054004;28;20025;-53
2021/04/28 04:39:04;;;;;;;2.95;1.80;;;19.40;34.00;;;;;;5054587;28;20064;-59
2021/04/28 04:41:29;;;;;;;4.55;1.30;;;19.40;33.90;;;;;;5054573;28;20036;-57
2021/04/28 04:43:55;;;;;;;3.33;1.50;;;19.40;34.00;;;;;;5056673;28;20029;-55
2021/04/28 04:46:21;;;;;;;4.10;1.33;;;19.40;34.20;;;;;;5058228;28;20025;-57
2021/04/28 04:48:47;;;;;;;7.50;1.88;;;19.50;34.40;;;;;;5058264;28;20048;-51
2021/04/28 04:51:13;;;;;;;3.05;1.10;;;19.50;34.50;;;;;;5057617;28;20025;-55
2021/04/28 04:53:38;;;;;;;3.42;1.23;;;19.50;34.50;;;;;;5058225;28;20527;-55
2021/04/28 04:56:04;;;;;;;3.85;1.10;;;19.60;34.70;;;;;;5040523;28;20120;-55
2021/04/28 04:58:29;;;;;;;1.17;1.00;;;19.60;34.70;;;;;;5057592;28;20406;-55
2021/04/28 05:00:55;;;;;;;1.45;0.90;;;19.60;34.80;;;;;;5058097;28;20025;-54
2021/04/28 05:03:20;;;;;;;5.28;1.40;;;19.60;34.80;;;;;;5058234;28;20347;-55
2021/04/28 05:05:46;;;;;;;4.10;1.30;;;19.60;34.80;;;;;;5058186;28;20025;-56
2021/04/28 05:08:11;;;;;;;1.40;1.10;;;19.60;34.80;;;;;;5057666;28;20021;-54
2021/04/28 05:10:37;;;;;;;1.27;0.95;;;19.70;34.90;;;;;;5057822;28;20021;-55
2021/04/28 05:13:03;;;;;;;1.80;1.02;;;19.70;34.90;;;;;;5058103;28;20355;-54
2021/04/28 05:15:28;;;;;;;1.98;0.90;;;19.70;34.90;;;;;;5057947;28;20025;-53
2021/04/28 05:17:58;;;;;;;2.97;0.70;;;19.70;34.90;;;;;;5058032;28;20433;-54
2021/04/28 05:20:25;;;;;;;0.95;0.80;;;19.70;34.90;;;;;;5057761;28;20432;-53
2021/04/28 05:22:50;;;;;;;1.05;0.70;;;19.80;35.00;;;;;;5057419;28;20028;-58
2021/04/28 05:25:16;;;;;;;1.23;1.13;;;19.80;35.00;;;;;;5057560;28;20039;-55
2021/04/28 05:27:42;;;;;;;1.77;1.00;;;19.80;35.00;;;;;;5057541;28;20021;-55
2021/04/28 05:30:08;;;;;;;2.65;1.00;;;19.80;35.00;;;;;;5057292;28;20462;-56
2021/04/28 05:32:34;;;;;;;2.38;1.00;;;19.80;35.70;;;;;;5057430;28;20036;-53
2021/04/28 05:35:00;;;;;;;1.05;1.00;;;19.90;35.10;;;;;;5057493;28;20344;-54
2021/04/28 05:37:26;;;;;;;1.58;1.00;;;19.90;35.10;;;;;;5057017;28;20444;-53
2021/04/28 05:39:52;;;;;;;2.25;1.10;;;19.90;35.10;;;;;;5057773;28;20439;-56
2021/04/28 05:42:17;;;;;;;1.73;1.02;;;19.90;35.10;;;;;;5057568;28;20416;-54
2021/04/28 05:44:44;;;;;;;2.33;1.30;;;19.90;35.20;;;;;;5056948;28;20348;-54
2021/04/28 05:47:11;;;;;;;2.15;0.95;;;19.90;35.10;;;;;;5056991;28;20436;-55
2021/04/28 05:49:36;;;;;;;1.20;1.10;;;20.00;35.20;;;;;;5056881;28;20339;-55
2021/04/28 05:52:02;;;;;;;4.78;1.10;;;20.00;35.20;;;;;;5056892;28;20025;-55
2021/04/28 05:54:28;;;;;;;2.00;1.38;;;20.00;35.30;;;;;;5056483;28;20036;-54
2021/04/28 05:56:55;;;;;;;3.28;0.80;;;20.00;35.20;;;;;;5056650;28;20028;-52
2021/04/28 05:59:20;;;;;;;1.38;0.90;;;20.00;35.20;;;;;;5057071;28;20043;-56
2021/04/28 06:01:46;;;;;;;1.27;0.82;;;20.00;35.20;;;;;;5057074;28;20429;-53
2021/04/28 06:04:11;;;;;;;1.42;1.20;;;20.10;35.30;;;;;;5056910;28;20036;-58
2021/04/28 06:06:37;;;;;;;2.20;1.17;;;20.10;35.30;;;;;;5056985;28;20029;-59
2021/04/28 06:09:03;;;;;;;5.05;1.15;;;20.10;35.30;;;;;;5056783;28;20072;-51
2021/04/28 06:11:28;;;;;;;1.92;1.00;;;20.10;35.30;;;;;;5056494;28;20420;-57
2021/04/28 06:13:54;;;;;;;1.70;1.10;;;20.10;35.40;;;;;;5056497;28;20028;-58
2021/04/28 06:16:20;;;;;;;3.55;1.00;;;20.10;35.50;;;;;;5056383;28;20090;-55
2021/04/28 06:18:45;;;;;;;0.73;0.73;;;20.20;35.60;;;;;;5056787;28;20035;-56
2021/04/28 06:21:11;;;;;;;2.05;1.00;;;20.20;35.60;;;;;;5056441;28;20067;-56
2021/04/28 06:23:37;;;;;;;1.58;1.10;;;20.20;35.60;;;;;;5056510;28;20109;-58
2021/04/28 06:26:03;;;;;;;3.97;1.20;;;20.20;35.50;;;;;;5056667;28;20086;-56
2021/04/28 06:28:29;;;;;;;2.45;1.25;;;20.30;35.60;;;;;;5056346;28;20025;-49
2021/04/28 06:30:55;;;;;;;4.38;1.38;;;20.20;35.40;;;;;;5055892;28;20047;-54
2021/04/28 06:33:21;;;;;;;7.82;1.38;;;20.30;35.50;;;;;;5056529;28;20116;-56
2021/04/28 06:35:46;;;;;;;5.47;1.50;;;20.30;35.50;;;;;;5056289;28;20107;-52
2021/04/28 06:38:12;;;;;;;3.25;1.00;;;20.30;35.40;;;;;;5056555;28;20033;-56
2021/04/28 06:40:38;;;;;;;1.13;1.00;;;20.30;35.40;;;;;;5056116;28;20029;-52
2021/04/28 06:43:07;;;;;;;4.25;1.10;;;20.30;35.30;;;;;;5056334;28;20059;-53
2021/04/28 06:45:35;;;;;;;1.58;1.15;;;20.30;35.30;;;;;;5056258;28;20056;-54
2021/04/28 06:48:01;;;;;;;3.45;1.17;;;20.30;35.30;;;;;;5055889;28;20518;-51
2021/04/28 06:50:27;;;;;;;1.77;0.90;;;20.30;35.30;;;;;;5055739;28;20329;-57
2021/04/28 06:52:53;;;;;;;2.00;1.10;;;20.40;35.30;;;;;;5056131;28;20040;-57
2021/04/28 06:55:19;;;;;;;2.65;1.20;;;20.40;35.30;;;;;;5055869;28;20454;-56
2021/04/28 06:57:51;;;;;;;1.70;0.90;;;20.30;35.30;;;;;;5055906;28;20123;-54
2021/04/28 07:00:17;;;;;;;4.85;1.25;;;20.40;35.30;;;;;;5055898;28;20025;-54
2021/04/28 07:02:43;;;;;;;4.72;1.00;;;20.40;35.30;;;;;;5054767;28;20043;-55
2021/04/28 07:05:09;;;;;;;3.78;1.05;;;20.40;35.20;;;;;;5055400;28;20029;-50
2021/04/28 07:07:34;;;;;;;3.55;1.58;;;20.40;35.20;;;;;;5055695;28;20017;-49
2021/04/28 07:10:00;;;;;;;3.53;1.40;;;20.40;35.00;;;;;;5055147;28;20054;-51
2021/04/28 07:12:26;;;;;;;2.55;1.25;;;20.40;35.00;;;;;;5055111;28;20363;-52
2021/04/28 07:14:51;;;;;;;7.88;1.85;;;20.40;35.00;;;;;;5055475;28;20029;-52
2021/04/28 07:17:17;;;;;;;5.03;1.52;;;20.40;35.10;;;;;;5055036;28;20051;-51
2021/04/28 07:19:42;;;;;;;2.58;1.35;;;20.50;35.10;;;;;;5038416;28;20119;-55
2021/04/28 07:22:07;;;;;;;2.97;1.88;;;20.50;35.10;;;;;;5055638;28;20021;-52
2021/04/28 07:24:34;;;;;;;4.75;2.08;;;20.50;35.10;;;;;;5055702;28;20032;-52
2021/04/28 07:26:59;;;;;;;5.00;1.20;;;20.50;35.10;;;;;;5055368;28;20025;-52
2021/04/28 07:29:25;;;;;;;4.05;1.10;;;20.50;35.20;;;;;;5055117;28;20025;-50
2021/04/28 07:31:50;;;;;;;5.30;1.90;;;20.50;35.40;;;;;;5055379;28;20056;-52
2021/04/28 07:34:16;;;;;;;4.53;1.58;;;20.50;35.80;;;;;;5050390;28;20501;-51
2021/04/28 07:36:43;;;;;;;3.55;1.08;;;20.50;36.00;;;;;;5054864;28;20029;-51
2021/04/28 07:39:09;;;;;;;2.53;1.20;;;20.50;36.20;;;;;;5055341;28;20332;-56
2021/04/28 07:41:35;;;;;;;8.05;1.27;;;20.60;36.30;;;;;;5054931;28;20027;-58
2021/04/28 07:44:01;;;;;;;2.40;1.00;;;20.60;36.50;;;;;;5041687;28;20021;-55
2021/04/28 07:46:27;;;;;;;5.25;1.20;;;20.60;36.60;;;;;;5034664;28;20195;-54
2021/04/28 07:48:53;;;;;;;2.10;0.90;;;20.60;36.70;;;;;;5048152;28;20025;-55
2021/04/28 07:51:19;;;;;;;3.13;1.13;;;20.60;36.70;;;;;;5055065;28;20351;-55
2021/04/28 07:53:44;;;;;;;1.88;0.82;;;20.60;36.80;;;;;;5054574;28;20100;-55
2021/04/28 07:56:10;;;;;;;1.30;0.93;;;20.70;36.80;;;;;;5054975;28;20435;-54
2021/04/28 07:58:36;;;;;;;3.15;1.10;;;20.70;37.00;;;;;;5054480;28;20044;-53
2021/04/28 08:01:01;;;;;;;3.20;0.82;;;20.70;37.10;;;;;;5054359;28;20025;-53
2021/04/28 08:03:27;;;;;;;3.70;1.08;;;20.70;37.10;;;;;;5054441;28;20058;-57
2021/04/28 08:05:52;;;;;;;6.35;1.48;;;20.70;37.40;;;;;;5054988;28;20032;-57
2021/04/28 08:08:18;;;;;;;3.65;1.20;;;20.80;37.60;;;;;;5054377;28;20036;-50
2021/04/28 08:10:44;;;;;;;3.03;1.23;;;20.80;37.70;;;;;;5054576;28;20017;-54
2021/04/28 08:13:11;;;;;;;3.70;1.23;;;20.80;37.80;;;;;;5054416;28;20033;-53
2021/04/28 08:15:38;;;;;;;2.65;1.42;;;20.80;38.00;;;;;;5054612;28;20029;-55
2021/04/28 08:18:04;;;;;;;2.55;1.30;;;20.80;38.10;;;;;;5055032;28;20124;-54
2021/04/28 08:20:30;;;;;;;5.47;1.40;;;20.90;38.20;;;;;;5058509;28;20096;-52
2021/04/28 08:22:55;;;;;;;1.98;0.85;;;20.90;38.30;;;;;;5058829;28;20112;-51
2021/04/28 08:25:21;;;;;;;3.67;1.08;;;20.90;38.20;;;;;;5058738;28;20067;-55
2021/04/28 08:27:47;;;;;;;1.92;1.40;;;20.90;38.00;;;;;;5058300;28;20036;-51
2021/04/28 08:30:14;;;;;;;4.65;1.30;;;20.90;37.80;;;;;;5058481;28;20025;-53
2021/04/28 08:32:39;;;;;;;2.25;1.17;;;20.90;37.60;;;;;;5058515;28;20406;-53
2021/04/28 08:35:06;;;;;;;1.65;1.10;;;20.90;37.40;;;;;;5058779;28;20029;-52
2021/04/28 08:37:32;;;;;;;1.83;1.30;;;20.90;37.40;;;;;;5058029;28;20033;-50
2021/04/28 08:39:58;;;;;;;2.30;1.40;;;21.00;37.30;;;;;;5058691;28;20100;-50
2021/04/28 08:42:24;;;;;;;3.30;1.50;;;21.00;37.20;;;;;;5040577;28;20428;-57
2021/04/28 08:44:50;;;;;;;4.85;1.25;;;21.00;37.70;;;;;;5058935;28;20029;-51
2021/04/28 08:47:17;;;;;;;7.50;2.10;;;21.00;37.60;;;;;;5058590;28;20052;-51
2021/04/28 08:49:42;;;;;;;8.80;2.53;;;21.00;36.80;;;;;;5049365;28;20442;-55
2021/04/28 08:52:08;;;;;;;4.40;2.00;;;21.00;36.40;;;;;;5037909;28;20100;-53
2021/04/28 08:54:36;;;;;;;2.67;1.95;;;21.00;36.30;;;;;;5038236;28;20029;-56
2021/04/28 08:57:02;;;;;;;4.38;2.17;;;21.00;36.00;;;;;;5037853;28;20520;-57
2021/04/28 08:59:27;;;;;;;4.70;2.50;;;21.00;35.70;;;;;;5038049;28;20025;-56
2021/04/28 09:01:58;;;;;;;8.20;2.72;;;21.00;35.40;;;;;;5038266;28;20033;-55
2021/04/28 09:04:24;;;;;;;5.47;2.22;;;21.00;35.20;;;;;;5037733;28;20041;-51
2021/04/28 09:06:51;;;;;;;3.33;1.70;;;21.10;35.40;;;;;;5037811;28;20030;-55
2021/04/28 09:09:18;;;;;;;7.60;2.10;;;21.00;36.00;;;;;;5037758;28;20037;-53
2021/04/28 09:11:49;;;;;;;7.20;1.95;;;21.10;35.40;;;;;;5037509;28;20040;-53
2021/04/28 09:14:20;;;;;;;3.83;1.90;;;21.10;35.30;;;;;;5037803;28;20029;-55
2021/04/28 09:17:02;;;;;;;3.50;1.58;;;21.10;35.30;;;;;;5037739;28;20078;-53
2021/04/28 09:19:42;;;;;;;7.38;1.83;;;21.10;35.30;;;;;;5037868;28;20025;-50
2021/04/28 09:22:10;;;;;;;2.78;1.75;;;21.20;35.30;;;;;;5037566;28;20480;-53
2021/04/28 09:24:45;;;;;;;3.15;1.60;;;21.20;35.30;;;;;;5037633;28;20018;-48
2021/04/28 09:27:31;;;;;;;3.45;1.20;;;21.20;35.30;;;;;;5037215;28;20405;-54
2021/04/28 09:29:56;;;;;;;1.73;1.42;;;21.30;35.40;;;;;;5037064;28;20088;-54
2021/04/28 09:32:32;;;;;;;2.97;1.75;;;21.30;35.40;;;;;;5037259;28;20063;-53
2021/04/28 09:35:34;;;;;;;3.60;1.90;;;21.30;35.40;;;;;;5037713;28;20022;-56
2021/04/28 09:38:01;;;;;;;2.58;1.30;;;21.30;35.40;;;;;;4937907;29;20047;-55
2021/04/28 09:40:48;;;;;;;2.30;1.48;;;21.40;35.50;;;;;;5016562;28;20038;-53
2021/04/28 09:43:14;;;;;;;3.88;1.38;;;21.40;35.50;;;;;;5037179;28;20035;-51
2021/04/28 09:45:48;;;;;;;9.45;2.08;;;21.40;35.60;;;;;;5037451;28;20022;-52
2021/04/28 09:48:25;;;;;;;9.70;2.00;;;21.40;35.60;;;;;;5036885;28;20037;-51
2021/04/28 09:51:08;;;;;;;3.97;2.35;;;21.40;35.50;;;;;;5036878;28;20039;-57
2021/04/28 09:53:34;;;;;;;3.65;2.10;;;21.40;35.20;;;;;;5037199;28;20502;-53
2021/04/28 09:56:00;;;;;;;6.45;1.90;;;21.40;35.00;;;;;;5037379;28;20033;-50
2021/04/28 09:58:51;;;;;;;6.15;2.40;;;21.40;35.20;;;;;;5037326;28;20029;-53
2021/04/28 10:01:36;;;;;;;8.13;1.90;;;21.40;35.40;;;;;;5036945;28;20026;-57
2021/04/28 10:04:04;;;;;;;2.45;1.50;;;21.40;35.50;;;;;;5036924;28;20017;-49
2021/04/28 10:06:49;;;;;;;4.18;1.50;;;21.40;36.30;;;;;;5037070;28;20389;-55
2021/04/28 10:09:38;;;;;;;5.95;2.42;;;21.40;35.70;;;;;;5036784;28;20029;-55
2021/04/28 10:12:06;;;;;;;5.20;2.03;;;21.40;35.50;;;;;;5036502;28;20105;-51
2021/04/28 10:14:34;;;;;;;7.63;2.00;;;21.40;35.70;;;;;;5035815;28;20053;-52
2021/04/28 10:17:03;;;;;;;3.50;1.60;;;21.50;35.80;;;;;;5036664;28;20030;-50
2021/04/28 10:19:29;;;;;;;6.57;1.80;;;21.50;35.80;;;;;;5036798;28;20029;-53
2021/04/28 10:22:01;;;;;;;3.35;1.88;;;21.50;35.60;;;;;;5036679;28;20025;-52
2021/04/28 10:24:28;;;;;;;6.38;2.03;;;21.40;35.40;;;;;;5036255;28;20064;-53
2021/04/28 10:26:54;;;;;;;7.93;2.10;;;21.40;35.30;;;;;;5036362;28;20070;-52
2021/04/28 10:29:21;;;;;;;2.15;1.95;;;21.50;35.10;;;;;;5036571;28;20029;-53
2021/04/28 10:31:50;;;;;;;5.43;2.33;;;21.50;35.00;;;;;;5036100;28;20072;-50
2021/04/28 10:34:51;;;;;;;5.47;2.53;;;21.50;34.90;;;;;;5036454;28;20047;-50
2021/04/28 10:37:20;;;;;;;3.17;2.00;;;21.50;34.90;;;;;;4992259;28;20072;-54
2021/04/28 10:39:47;;;;;;;3.45;2.15;;;21.50;35.10;;;;;;5044043;28;20094;-53
2021/04/28 10:42:25;;;;;;;3.22;2.28;;;21.50;35.30;;;;;;5055562;28;20412;-52
2021/04/28 10:44:51;;;;;;;4.30;2.78;;;21.50;36.00;;;;;;5056098;28;20032;-52
2021/04/28 10:47:21;;;;;;;5.97;3.75;;;21.50;35.10;;;;;;5055597;28;20099;-53
2021/04/28 10:50:20;;;;;;;4.30;2.85;;;21.50;34.60;;;;;;5056264;28;20025;-52
2021/04/28 10:53:05;;;;;;;6.93;4.30;;;21.60;34.70;;;;;;5055818;28;20029;-53
2021/04/28 10:55:54;;;;;;;5.93;3.05;;;21.50;34.40;;;;;;5056051;28;20053;-48
2021/04/28 10:58:26;;;;;;;3.17;2.53;;;21.50;34.50;;;;;;5055940;28;20033;-55
2021/04/28 11:01:07;;;;;;;4.07;2.03;;;21.50;34.60;;;;;;5055506;28;20471;-55
2021/04/28 11:03:41;;;;;;;2.03;1.83;;;21.50;34.80;;;;;;5055398;28;20060;-53
2021/04/28 11:06:20;;;;;;;2.78;2.10;;;21.50;34.90;;;;;;5034960;28;20028;-51
2021/04/28 11:09:06;;;;;;;2.70;2.05;;;21.50;34.90;;;;;;5053215;28;20040;-48
2021/04/28 11:11:32;;;;;;;3.13;2.28;;;21.50;34.90;;;;;;5035782;28;20037;-50
2021/04/28 11:16:39;;;;;;;5.70;2.38;;;21.60;35.10;;;;;;5035228;28;20126;-55
2021/04/28 11:19:22;;;;;;;2.58;2.33;;;21.60;35.10;;;;;;5035214;28;20475;-50
2021/04/28 11:22:07;;;;;;;4.00;2.13;;;21.60;35.10;;;;;;5035574;28;20108;-48
2021/04/28 11:24:58;;;;;;;3.67;2.47;;;21.60;35.40;;;;;;5018374;28;20045;-52
2021/04/28 11:27:43;;;;;;;2.92;2.20;;;21.60;35.40;;;;;;5035629;28;20014;-48
2021/04/28 11:30:23;;;;;;;2.08;1.75;;;21.60;35.40;;;;;;5035430;28;20075;-48
2021/04/28 11:33:07;;;;;;;1.90;1.75;;;21.60;35.50;;;;;;5035312;28;20022;-50
2021/04/28 11:35:34;;;;;;;3.30;1.70;;;21.70;35.50;;;;;;5035286;28;20037;-51
2021/04/28 11:38:04;;;;;;;4.05;1.75;;;21.70;35.60;;;;;;5035328;28;20415;-49
2021/04/28 11:40:30;;;;;;;4.53;1.90;;;21.70;35.60;;;;;;5035240;28;20022;-53
2021/04/28 11:42:55;;;;;;;2.05;1.85;;;21.70;35.50;;;;;;5035162;28;20033;-52
2021/04/28 11:45:21;;;;;;;3.08;2.10;;;21.70;35.60;;;;;;5035181;28;20025;-49
2021/04/28 11:47:46;;;;;;;2.97;2.17;;;21.70;35.50;;;;;;5034625;28;20337;-51
2021/04/28 11:50:12;;;;;;;2.72;2.17;;;21.70;35.50;;;;;;5034872;28;20036;-48
2021/04/28 11:52:39;;;;;;;2.35;1.75;;;21.70;35.50;;;;;;5035032;28;20025;-50
2021/04/28 11:55:05;;;;;;;2.83;2.00;;;21.80;35.50;;;;;;5035334;28;20115;-52
2021/04/28 11:57:32;;;;;;;2.50;1.80;;;21.80;35.50;;;;;;5034469;28;20041;-51
2021/04/28 12:00:10;;;;;;;2.85;1.67;;;21.80;35.60;;;;;;5035030;28;20025;-51
2021/04/28 12:02:37;;;;;;;1.55;1.45;;;21.80;35.50;;;;;;5034563;28;20097;-49
2021/04/28 12:05:04;;;;;;;2.25;1.65;;;21.80;35.50;;;;;;5034499;28;20033;-50
2021/04/28 12:07:31;;;;;;;2.40;1.83;;;21.80;35.60;;;;;;5034483;28;20441;-47
2021/04/28 12:09:57;;;;;;;3.92;1.80;;;21.80;35.60;;;;;;5034972;28;20017;-49
2021/04/28 12:12:27;;;;;;;1.88;1.63;;;21.80;35.60;;;;;;5034938;28;20091;-52
2021/04/28 12:14:54;;;;;;;1.77;1.65;;;21.80;35.60;;;;;;5034660;28;20057;-50
2021/04/28 12:17:22;;;;;;;1.92;1.75;;;21.80;35.70;;;;;;5034199;28;20379;-49
2021/04/28 12:19:56;;;;;;;2.58;1.77;;;21.80;35.80;;;;;;5034727;28;20090;-50
2021/04/28 12:22:27;;;;;;;3.08;2.05;;;21.80;36.00;;;;;;5017509;28;20397;-46
2021/04/28 12:24:59;;;;;;;1.70;1.42;;;21.80;36.10;;;;;;5034615;28;20041;-53
2021/04/28 12:27:27;;;;;;;3.28;1.95;;;21.80;36.40;;;;;;5034674;28;20061;-56
2021/04/28 12:29:53;;;;;;;4.93;3.10;;;21.80;37.10;;;;;;5034515;28;20132;-54
2021/04/28 12:32:24;;;;;;;3.15;2.00;;;21.80;35.90;;;;;;5034603;28;20423;-56
2021/04/28 12:35:06;;;;;;;2.50;1.80;;;21.70;36.80;;;;;;5034633;28;20077;-53
2021/04/28 12:37:32;;;;;;;1.85;1.50;;;21.80;37.30;;;;;;5034722;28;20030;-53
2021/04/28 12:40:00;;;;;;;3.42;1.98;;;21.80;37.40;;;;;;5034286;28;20495;-51
2021/04/28 12:42:29;;;;;;;3.25;1.73;;;21.80;37.50;;;;;;5034413;28;20033;-50
2021/04/28 12:44:56;;;;;;;2.13;1.55;;;21.80;37.80;;;;;;5034479;28;20026;-54
2021/04/28 12:47:28;;;;;;;4.82;1.98;;;21.80;37.80;;;;;;5034057;28;20029;-58
2021/04/28 12:50:00;;;;;;;3.50;1.63;;;21.80;37.70;;;;;;5034631;28;20112;-51
2021/04/28 12:52:35;;;;;;;2.85;1.60;;;21.90;37.70;;;;;;5034538;28;20053;-52
2021/04/28 12:55:24;;;;;;;1.98;1.77;;;21.90;37.60;;;;;;5034040;28;20053;-54
2021/04/28 12:57:57;;;;;;;3.40;1.65;;;21.90;37.60;;;;;;5034423;28;20052;-59